createdAt,value
2019-05-07T00:01:18.586Z,3.00
2019-05-07T00:03:49.078Z,2.90
2019-05-07T00:06:19.279Z,2.80
2019-05-07T00:08:52.154Z,2.80
2019-05-07T00:11:22.634Z,2.80
2019-05-07T00:13:53.129Z,2.70
2019-05-07T00:16:23.726Z,2.60
2019-05-07T00:18:54.131Z,2.60
2019-05-07T00:21:24.393Z,2.50
2019-05-07T00:23:54.479Z,2.50
2019-05-07T00:26:25.068Z,2.50
2019-05-07T00:28:55.177Z,2.50
2019-05-07T00:31:25.936Z,2.40
2019-05-07T00:33:57.474Z,2.30
2019-05-07T00:36:48.589Z,2.30
2019-05-07T00:39:27.079Z,2.30
2019-05-07T00:42:28.865Z,2.30
2019-05-07T00:45:16.921Z,2.20
2019-05-07T00:47:38.933Z,2.20
2019-05-07T00:50:14.899Z,2.10
2019-05-07T00:52:45.285Z,2.10
2019-05-07T00:55:15.785Z,2.00
2019-05-07T00:57:47.185Z,2.00
2019-05-07T01:00:17.450Z,1.90
2019-05-07T01:02:52.521Z,1.90
2019-05-07T01:05:27.540Z,1.80
2019-05-07T01:07:58.705Z,1.80
2019-05-07T01:10:29.684Z,1.70
2019-05-07T01:12:59.919Z,1.70
2019-05-07T01:15:32.109Z,1.60
2019-05-07T01:18:03.389Z,1.60
2019-05-07T01:20:33.918Z,1.60
2019-05-07T01:23:04.321Z,1.50
2019-05-07T01:25:35.016Z,1.50
2019-05-07T01:28:06.016Z,1.50
2019-05-07T01:30:36.321Z,1.40
2019-05-07T01:33:17.350Z,1.40
2019-05-07T01:36:06.890Z,1.40
2019-05-07T01:38:37.243Z,1.40
2019-05-07T01:41:07.659Z,1.40
2019-05-07T01:43:38.383Z,1.40
2019-05-07T01:46:09.489Z,1.30
2019-05-07T01:48:39.805Z,1.40
2019-05-07T01:51:10.073Z,1.30
2019-05-07T01:53:43.017Z,1.30
2019-05-07T01:56:13.361Z,1.20
2019-05-07T01:58:43.887Z,1.20
2019-05-07T02:01:14.431Z,1.20
2019-05-07T02:04:12.845Z,1.20
2019-05-07T02:07:02.864Z,1.20
2019-05-07T02:09:39.792Z,1.20
2019-05-07T02:12:23.179Z,1.20
2019-05-07T02:14:53.300Z,1.20
2019-05-07T02:17:24.579Z,1.20
2019-05-07T02:19:54.983Z,1.30
2019-05-07T02:22:25.581Z,1.30
2019-05-07T02:24:56.150Z,1.40
2019-05-07T02:27:26.280Z,1.40
2019-05-07T02:29:57.094Z,1.40
2019-05-07T02:32:27.281Z,1.50
2019-05-07T02:34:57.536Z,1.50
2019-05-07T02:37:46.921Z,1.50
2019-05-07T02:40:15.316Z,1.50
2019-05-07T02:42:45.553Z,1.50
2019-05-07T02:45:33.221Z,1.50
2019-05-07T02:48:03.886Z,1.50
2019-05-07T02:50:39.846Z,1.40
2019-05-07T02:53:29.595Z,1.40
2019-05-07T02:56:03.345Z,1.40
2019-05-07T02:58:33.082Z,1.30
2019-05-07T03:01:05.065Z,1.20
2019-05-07T03:03:35.629Z,1.10
2019-05-07T03:06:05.789Z,1.10
2019-05-07T03:08:36.341Z,1.10
2019-05-07T03:11:06.808Z,1.20
2019-05-07T03:13:37.412Z,1.20
2019-05-07T03:16:07.897Z,1.40
2019-05-07T03:18:38.583Z,1.50
2019-05-07T03:21:14.112Z,1.50
2019-05-07T03:23:53.884Z,1.60
2019-05-07T03:26:30.113Z,1.60
2019-05-07T03:29:04.032Z,1.60
2019-05-07T03:31:47.263Z,1.70
2019-05-07T03:34:37.230Z,1.70
2019-05-07T03:37:09.186Z,1.70
2019-05-07T03:39:42.947Z,1.60
2019-05-07T03:42:13.029Z,1.60
2019-05-07T03:44:53.778Z,1.60
2019-05-07T03:47:28.666Z,1.60
2019-05-07T03:50:02.978Z,1.60
2019-05-07T03:52:33.539Z,1.60
2019-05-07T03:55:04.138Z,1.50
2019-05-07T03:57:34.396Z,1.60
2019-05-07T04:00:05.282Z,1.60
2019-05-07T04:02:35.640Z,1.60
2019-05-07T04:05:06.631Z,1.60
2019-05-07T04:07:55.880Z,1.60
2019-05-07T04:10:25.991Z,1.60
2019-05-07T04:12:56.421Z,1.70
2019-05-07T04:15:26.601Z,1.70
2019-05-07T04:17:57.389Z,1.70
2019-05-07T04:20:27.721Z,1.80
2019-05-07T04:22:57.907Z,1.80
2019-05-07T04:25:47.705Z,1.90
2019-05-07T04:28:54.107Z,1.90
2019-05-07T04:31:26.190Z,2.00
2019-05-07T04:33:58.115Z,2.10
2019-05-07T04:36:34.191Z,2.10
2019-05-07T04:39:03.583Z,2.10
2019-05-07T04:41:34.883Z,2.20
2019-05-07T04:44:06.143Z,2.20
2019-05-07T04:46:36.703Z,2.30
2019-05-07T04:49:08.032Z,2.40
2019-05-07T04:51:47.462Z,2.50
2019-05-07T04:54:17.627Z,2.70
2019-05-07T04:56:47.803Z,2.80
2019-05-07T04:59:17.933Z,2.90
2019-05-07T05:01:54.235Z,3.10
2019-05-07T05:04:30.156Z,3.20
2019-05-07T05:06:57.586Z,3.40
2019-05-07T05:09:28.017Z,3.50
2019-05-07T05:11:58.921Z,3.70
2019-05-07T05:14:29.586Z,3.80
2019-05-07T05:17:01.938Z,4.00
2019-05-07T05:19:32.290Z,4.10
2019-05-07T05:22:22.186Z,4.30
2019-05-07T05:25:12.134Z,4.50
2019-05-07T05:27:43.036Z,4.60
2019-05-07T05:30:17.747Z,4.80
2019-05-07T05:32:47.964Z,5.10
2019-05-07T05:35:18.016Z,5.30
2019-05-07T05:37:48.308Z,5.50
2019-05-07T05:40:19.122Z,5.60
2019-05-07T05:42:55.900Z,5.80
2019-05-07T05:45:38.380Z,6.00
2019-05-07T05:48:08.825Z,6.20
2019-05-07T05:50:53.666Z,6.30
2019-05-07T05:53:43.539Z,6.50
2019-05-07T05:56:23.492Z,6.80
2019-05-07T05:59:12.108Z,6.90
2019-05-07T06:01:53.312Z,7.10
2019-05-07T06:04:42.030Z,7.20
2019-05-07T06:07:22.773Z,7.40
2019-05-07T06:10:22.480Z,7.60
2019-05-07T06:13:14.782Z,7.70
2019-05-07T06:15:55.047Z,7.80
2019-05-07T06:18:54.348Z,8.00
2019-05-07T06:21:49.691Z,8.00
2019-05-07T06:24:32.036Z,8.20
2019-05-07T06:27:03.531Z,8.30
2019-05-07T06:29:33.610Z,8.50
2019-05-07T06:32:04.766Z,8.70
2019-05-07T06:34:35.543Z,8.80
2019-05-07T06:37:06.283Z,9.00
2019-05-07T06:39:52.953Z,9.10
2019-05-07T06:42:48.834Z,9.30
2019-05-07T06:45:25.471Z,9.40
2019-05-07T06:47:55.581Z,9.40
2019-05-07T06:50:25.710Z,9.30
2019-05-07T06:52:56.360Z,9.20
2019-05-07T06:55:26.462Z,9.20
2019-05-07T06:57:57.077Z,9.20
2019-05-07T07:00:45.947Z,9.20
2019-05-07T07:03:25.791Z,9.00
2019-05-07T07:06:14.443Z,9.00
2019-05-07T07:08:56.681Z,8.90
2019-05-07T07:11:42.366Z,8.90
2019-05-07T07:14:12.630Z,8.80
2019-05-07T07:16:42.955Z,8.90
2019-05-07T07:19:13.135Z,8.90
2019-05-07T07:21:43.392Z,9.00
2019-05-07T07:24:14.331Z,9.00
2019-05-07T07:26:44.803Z,9.00
2019-05-07T07:29:16.553Z,9.10
2019-05-07T07:31:58.925Z,9.20
2019-05-07T07:34:33.270Z,9.20
2019-05-07T07:37:28.620Z,9.30
2019-05-07T07:40:28.754Z,9.40
2019-05-07T07:42:59.224Z,9.60
2019-05-07T07:45:32.277Z,9.70
2019-05-07T07:48:02.415Z,9.90
2019-05-07T07:50:33.185Z,10.00
2019-05-07T07:53:03.677Z,10.20
2019-05-07T07:55:39.162Z,10.40
2019-05-07T07:58:16.489Z,10.40
2019-05-07T08:00:53.533Z,10.60
2019-05-07T08:03:23.952Z,10.80
2019-05-07T08:05:54.222Z,10.90
2019-05-07T08:08:25.194Z,11.10
2019-05-07T08:10:55.677Z,11.30
2019-05-07T08:13:27.064Z,11.50
2019-05-07T08:15:57.498Z,11.70
2019-05-07T08:18:27.834Z,11.80
2019-05-07T08:20:58.214Z,11.70
2019-05-07T08:23:28.300Z,11.90
2019-05-07T08:25:58.382Z,12.00
2019-05-07T08:28:28.683Z,12.20
2019-05-07T08:31:22.614Z,12.30
2019-05-07T08:33:59.423Z,12.20
2019-05-07T08:36:29.703Z,12.10
2019-05-07T08:39:02.229Z,11.90
2019-05-07T08:41:33.841Z,11.90
2019-05-07T08:44:12.188Z,12.00
2019-05-07T08:46:47.285Z,12.30
2019-05-07T08:49:17.925Z,12.40
2019-05-07T08:52:02.996Z,12.50
2019-05-07T08:54:33.990Z,12.70
2019-05-07T08:57:04.143Z,12.80
2019-05-07T08:59:35.114Z,12.80
2019-05-07T09:02:06.263Z,12.80
2019-05-07T09:04:36.396Z,12.90
2019-05-07T09:07:06.819Z,12.60
2019-05-07T09:09:37.125Z,12.60
2019-05-07T09:12:07.311Z,12.70
2019-05-07T09:14:37.668Z,12.50
2019-05-07T09:17:07.843Z,12.80
2019-05-07T09:19:48.326Z,13.10
2019-05-07T09:22:12.499Z,13.30
2019-05-07T09:24:42.674Z,13.50
2019-05-07T09:27:25.414Z,13.50
2019-05-07T09:30:15.470Z,13.00
2019-05-07T09:32:59.503Z,13.10
2019-05-07T09:35:49.814Z,13.40
2019-05-07T09:38:22.183Z,13.80
2019-05-07T09:40:52.634Z,13.90
2019-05-07T09:43:23.136Z,14.10
2019-05-07T09:45:53.464Z,14.30
2019-05-07T09:48:24.088Z,14.50
2019-05-07T09:50:54.348Z,14.80
2019-05-07T09:53:25.740Z,15.00
2019-05-07T09:55:55.944Z,15.10
2019-05-07T09:58:35.841Z,15.10
2019-05-07T10:00:59.095Z,15.20
2019-05-07T10:03:29.309Z,15.00
2019-05-07T10:06:02.058Z,14.80
2019-05-07T10:08:32.406Z,14.80
2019-05-07T10:11:04.394Z,15.00
2019-05-07T10:13:42.795Z,15.00
2019-05-07T10:16:15.825Z,15.00
2019-05-07T10:18:46.420Z,15.10
2019-05-07T10:21:16.502Z,15.10
2019-05-07T10:23:46.729Z,15.30
2019-05-07T10:26:17.272Z,15.50
2019-05-07T10:28:47.535Z,15.50
2019-05-07T10:31:18.110Z,15.40
2019-05-07T10:33:48.268Z,15.60
2019-05-07T10:36:18.459Z,15.70
2019-05-07T10:38:49.035Z,16.00
2019-05-07T10:41:19.332Z,16.40
2019-05-07T10:43:51.950Z,16.60
2019-05-07T10:46:31.954Z,16.60
2019-05-07T10:49:22.607Z,16.60
2019-05-07T10:51:53.346Z,16.50
2019-05-07T10:54:23.799Z,16.20
2019-05-07T10:56:53.903Z,16.20
2019-05-07T10:59:24.616Z,16.30
2019-05-07T11:02:07.432Z,16.30
2019-05-07T11:04:42.790Z,16.00
2019-05-07T11:07:11.344Z,15.50
2019-05-07T11:09:42.017Z,15.70
2019-05-07T11:12:12.805Z,15.60
2019-05-07T11:14:43.025Z,15.50
2019-05-07T11:17:38.733Z,15.30
2019-05-07T11:20:09.273Z,15.10
2019-05-07T11:22:39.635Z,15.00
2019-05-07T11:25:11.887Z,14.90
2019-05-07T11:27:42.436Z,15.00
2019-05-07T11:30:14.087Z,15.20
2019-05-07T11:32:44.621Z,15.40
2019-05-07T11:35:14.940Z,15.50
2019-05-07T11:37:45.168Z,15.70
2019-05-07T11:40:16.107Z,15.60
2019-05-07T11:43:05.284Z,15.70
2019-05-07T11:45:47.752Z,16.00
2019-05-07T11:48:19.371Z,16.20
2019-05-07T11:51:04.642Z,16.40
2019-05-07T11:53:35.512Z,16.70
2019-05-07T11:56:06.132Z,17.00
2019-05-07T11:58:36.809Z,17.10
2019-05-07T12:01:12.603Z,17.50
2019-05-07T12:03:43.685Z,17.20
2019-05-07T12:06:14.687Z,16.90
2019-05-07T12:08:51.664Z,16.60
2019-05-07T12:11:17.158Z,16.90
2019-05-07T12:13:47.474Z,17.10
2019-05-07T12:16:18.133Z,17.30
2019-05-07T12:18:48.509Z,17.00
2019-05-07T12:21:23.516Z,17.00
2019-05-07T12:23:52.525Z,17.00
2019-05-07T12:26:23.559Z,17.00
2019-05-07T12:28:54.141Z,17.30
2019-05-07T12:31:46.468Z,17.40
2019-05-07T12:34:27.089Z,17.50
2019-05-07T12:36:58.062Z,17.40
2019-05-07T12:39:29.266Z,17.40
2019-05-07T12:42:01.248Z,17.70
2019-05-07T12:44:32.041Z,17.70
2019-05-07T12:47:05.879Z,17.60
2019-05-07T12:49:36.975Z,17.80
2019-05-07T12:52:19.572Z,17.60
2019-05-07T12:55:03.242Z,17.70
2019-05-07T12:57:33.754Z,17.70
2019-05-07T13:00:22.964Z,17.80
2019-05-07T13:03:16.743Z,18.10
2019-05-07T13:05:47.109Z,18.10
2019-05-07T13:08:18.583Z,18.00
2019-05-07T13:10:51.760Z,18.00
2019-05-07T13:13:22.183Z,17.80
2019-05-07T13:15:52.617Z,17.30
2019-05-07T13:18:22.988Z,17.60
2019-05-07T13:20:53.338Z,17.80
2019-05-07T13:23:24.836Z,17.90
2019-05-07T13:25:55.402Z,18.00
2019-05-07T13:28:25.686Z,18.00
2019-05-07T13:30:56.717Z,17.70
2019-05-07T13:33:28.776Z,17.50
2019-05-07T13:35:59.426Z,17.00
2019-05-07T13:38:54.507Z,15.90
2019-05-07T13:41:59.365Z,15.90
2019-05-07T13:44:44.670Z,16.00
2019-05-07T13:47:33.139Z,16.10
2019-05-07T13:50:03.402Z,16.20
2019-05-07T13:52:34.994Z,16.10
2019-05-07T13:55:05.949Z,16.10
2019-05-07T13:57:36.410Z,15.60
2019-05-07T14:00:12.840Z,15.00
2019-05-07T14:02:43.169Z,14.50
2019-05-07T14:05:14.351Z,14.30
2019-05-07T14:07:44.979Z,14.10
2019-05-07T14:10:15.644Z,14.40
2019-05-07T14:12:46.271Z,14.40
2019-05-07T14:15:17.212Z,14.30
2019-05-07T14:17:47.647Z,13.90
2019-05-07T14:20:18.354Z,13.80
2019-05-07T14:22:48.649Z,13.80
2019-05-07T14:25:19.108Z,14.00
2019-05-07T14:27:49.234Z,14.10
2019-05-07T14:30:21.691Z,14.00
2019-05-07T14:32:58.908Z,14.10
2019-05-07T14:35:54.684Z,14.30
2019-05-07T14:38:52.851Z,14.50
2019-05-07T14:41:25.785Z,14.70
2019-05-07T14:44:04.571Z,14.60
2019-05-07T14:46:44.503Z,14.70
2019-05-07T14:49:07.311Z,14.90
2019-05-07T14:51:37.679Z,15.10
2019-05-07T14:54:08.729Z,15.20
2019-05-07T14:56:39.392Z,15.40
2019-05-07T14:59:09.833Z,15.60
2019-05-07T15:01:55.497Z,15.70
2019-05-07T15:04:34.139Z,15.80
2019-05-07T15:07:06.130Z,15.70
2019-05-07T15:09:36.296Z,15.50
2019-05-07T15:12:07.018Z,15.20
2019-05-07T15:14:42.139Z,15.10
2019-05-07T15:17:22.307Z,15.10
2019-05-07T15:19:53.275Z,15.00
2019-05-07T15:22:49.223Z,14.80
2019-05-07T15:25:15.605Z,15.00
2019-05-07T15:27:47.916Z,15.30
2019-05-07T15:30:18.899Z,15.40
2019-05-07T15:32:49.065Z,15.80
2019-05-07T15:35:19.275Z,16.00
2019-05-07T15:37:51.680Z,16.00
2019-05-07T15:40:22.530Z,15.80
2019-05-07T15:42:53.267Z,15.80
2019-05-07T15:45:23.898Z,15.80
2019-05-07T15:47:56.039Z,15.90
2019-05-07T15:50:28.885Z,16.00
2019-05-07T15:53:21.978Z,16.00
2019-05-07T15:55:52.566Z,15.90
2019-05-07T15:58:23.497Z,15.80
2019-05-07T16:00:53.734Z,15.90
2019-05-07T16:03:32.830Z,15.90
2019-05-07T16:06:03.843Z,15.90
2019-05-07T16:08:38.214Z,15.80
2019-05-07T16:11:12.565Z,15.70
2019-05-07T16:13:49.004Z,15.60
2019-05-07T16:16:23.571Z,15.60
2019-05-07T16:19:12.489Z,15.50
2019-05-07T16:21:42.661Z,15.40
2019-05-07T16:24:14.020Z,15.20
2019-05-07T16:26:47.122Z,15.10
2019-05-07T16:29:17.737Z,15.00
2019-05-07T16:31:48.896Z,15.00
2019-05-07T16:34:22.031Z,15.00
2019-05-07T16:36:52.210Z,14.90
2019-05-07T16:39:22.405Z,14.90
2019-05-07T16:41:52.751Z,15.00
2019-05-07T16:44:23.162Z,15.00
2019-05-07T16:46:53.710Z,15.00
2019-05-07T16:49:24.635Z,15.00
2019-05-07T16:51:54.951Z,15.10
2019-05-07T16:54:25.207Z,15.10
2019-05-07T16:57:17.130Z,15.10
2019-05-07T16:59:47.498Z,14.90
2019-05-07T17:02:22.995Z,14.80
2019-05-07T17:05:05.874Z,14.70
2019-05-07T17:07:39.291Z,14.70
2019-05-07T17:10:11.674Z,14.80
2019-05-07T17:12:43.752Z,15.00
2019-05-07T17:15:17.240Z,15.20
2019-05-07T17:17:50.746Z,15.30
2019-05-07T17:20:22.037Z,15.30
2019-05-07T17:22:52.627Z,15.20
2019-05-07T17:25:38.562Z,15.00
2019-05-07T17:28:09.661Z,14.90
2019-05-07T17:30:42.106Z,14.60
2019-05-07T17:33:12.803Z,14.60
2019-05-07T17:35:45.867Z,14.60
2019-05-07T17:38:16.050Z,14.80
2019-05-07T17:40:46.660Z,14.90
2019-05-07T17:43:17.309Z,14.90
2019-05-07T17:45:47.892Z,14.80
2019-05-07T17:48:18.211Z,14.60
2019-05-07T17:51:01.270Z,14.40
2019-05-07T17:53:32.130Z,14.10
2019-05-07T17:56:05.914Z,13.90
2019-05-07T17:58:37.372Z,13.70
2019-05-07T18:01:08.458Z,13.50
2019-05-07T18:03:39.319Z,13.30
2019-05-07T18:06:12.349Z,13.00
2019-05-07T18:08:42.572Z,12.90
2019-05-07T18:11:20.938Z,12.70
2019-05-07T18:13:46.153Z,12.50
2019-05-07T18:16:35.858Z,12.30
2019-05-07T18:19:06.167Z,12.10
2019-05-07T18:21:36.919Z,11.90
2019-05-07T18:24:13.712Z,11.80
2019-05-07T18:26:39.294Z,11.70
2019-05-07T18:29:11.803Z,11.60
2019-05-07T18:31:50.738Z,11.40
2019-05-07T18:34:22.114Z,11.30
2019-05-07T18:36:53.062Z,11.20
2019-05-07T18:39:23.935Z,11.10
2019-05-07T18:41:54.260Z,11.00
2019-05-07T18:44:26.426Z,10.90
2019-05-07T18:46:56.767Z,10.70
2019-05-07T18:49:27.091Z,10.60
2019-05-07T18:51:57.354Z,10.50
2019-05-07T18:54:31.292Z,10.40
2019-05-07T18:56:59.544Z,10.30
2019-05-07T18:59:31.861Z,10.20
2019-05-07T19:02:03.763Z,10.10
2019-05-07T19:04:34.540Z,10.00
2019-05-07T19:07:04.840Z,9.90
2019-05-07T19:09:35.373Z,9.90
2019-05-07T19:12:07.275Z,9.70
2019-05-07T19:14:37.940Z,9.70
2019-05-07T19:17:08.539Z,9.60
2019-05-07T19:19:41.865Z,9.50
2019-05-07T19:22:12.164Z,9.40
2019-05-07T19:24:47.872Z,9.30
2019-05-07T19:27:14.768Z,9.20
2019-05-07T19:29:45.926Z,9.10
2019-05-07T19:32:17.271Z,9.10
2019-05-07T19:34:47.709Z,8.90
2019-05-07T19:37:17.945Z,8.90
2019-05-07T19:39:48.212Z,8.80
2019-05-07T19:42:18.337Z,8.70
2019-05-07T19:44:49.093Z,8.60
2019-05-07T19:47:19.218Z,8.60
2019-05-07T19:49:49.484Z,8.50
2019-05-07T19:52:19.778Z,8.40
2019-05-07T19:54:58.909Z,8.30
2019-05-07T19:57:26.941Z,8.20
2019-05-07T19:59:57.398Z,8.20
2019-05-07T20:02:32.255Z,8.10
2019-05-07T20:05:03.704Z,8.00
2019-05-07T20:07:33.997Z,7.90
2019-05-07T20:10:04.465Z,7.80
2019-05-07T20:12:34.643Z,7.70
2019-05-07T20:15:05.735Z,7.60
2019-05-07T20:17:35.870Z,7.50
2019-05-07T20:20:07.950Z,7.50
2019-05-07T20:22:38.223Z,7.40
2019-05-07T20:25:18.539Z,7.30
2019-05-07T20:27:42.006Z,7.30
2019-05-07T20:30:13.207Z,7.20
2019-05-07T20:32:43.579Z,7.10
2019-05-07T20:35:14.113Z,7.10
2019-05-07T20:37:44.526Z,6.90
2019-05-07T20:40:15.145Z,6.80
2019-05-07T20:42:45.357Z,6.80
2019-05-07T20:45:16.020Z,6.70
2019-05-07T20:47:46.143Z,6.60
2019-05-07T20:50:16.755Z,6.60
2019-05-07T20:52:46.888Z,6.60
2019-05-07T20:55:31.523Z,6.60
2019-05-07T20:58:02.905Z,6.60
2019-05-07T21:00:32.766Z,6.70
2019-05-07T21:03:23.820Z,6.60
2019-05-07T21:05:53.938Z,6.60
2019-05-07T21:08:24.209Z,6.60
2019-05-07T21:10:54.340Z,6.50
2019-05-07T21:13:31.040Z,6.40
2019-05-07T21:15:58.435Z,6.40
2019-05-07T21:18:29.243Z,6.30
2019-05-07T21:20:59.446Z,6.20
2019-05-07T21:23:32.452Z,6.20
2019-05-07T21:26:02.370Z,6.10
2019-05-07T21:28:33.950Z,6.10
2019-05-07T21:31:04.507Z,6.10
2019-05-07T21:33:34.684Z,6.10
2019-05-07T21:36:05.158Z,6.00
2019-05-07T21:38:35.247Z,6.00
2019-05-07T21:41:05.827Z,5.90
2019-05-07T21:43:36.187Z,5.80
2019-05-07T21:46:06.416Z,5.80
2019-05-07T21:48:36.520Z,5.80
2019-05-07T21:51:06.696Z,5.80
2019-05-07T21:53:43.044Z,5.80
2019-05-07T21:56:38.783Z,5.80
2019-05-07T21:59:13.103Z,5.80
2019-05-07T22:01:48.779Z,5.80
2019-05-07T22:04:19.064Z,5.80
2019-05-07T22:06:49.535Z,5.80
2019-05-07T22:09:32.872Z,5.80
2019-05-07T22:12:05.617Z,5.80
2019-05-07T22:14:57.598Z,5.80
2019-05-07T22:17:46.154Z,5.80
2019-05-07T22:20:17.016Z,5.80
2019-05-07T22:22:47.137Z,5.80
2019-05-07T22:25:17.892Z,5.90
2019-05-07T22:27:50.281Z,5.80
2019-05-07T22:30:26.932Z,5.80
2019-05-07T22:33:02.578Z,5.70
2019-05-07T22:35:36.376Z,5.60
2019-05-07T22:38:12.176Z,5.60
2019-05-07T22:40:44.390Z,5.50
2019-05-07T22:43:15.482Z,5.40
2019-05-07T22:45:46.418Z,5.40
2019-05-07T22:48:17.050Z,5.30
2019-05-07T22:50:47.578Z,5.20
2019-05-07T22:53:17.801Z,5.10
2019-05-07T22:55:47.872Z,5.10
2019-05-07T22:58:24.023Z,5.00
2019-05-07T23:01:02.508Z,5.00
2019-05-07T23:03:33.269Z,4.90
2019-05-07T23:06:07.679Z,4.90
2019-05-07T23:08:42.148Z,4.90
2019-05-07T23:11:12.206Z,4.90
2019-05-07T23:13:43.890Z,4.80
2019-05-07T23:16:14.727Z,4.70
2019-05-07T23:18:45.141Z,4.70
2019-05-07T23:21:17.012Z,4.70
2019-05-07T23:23:47.495Z,4.70
2019-05-07T23:26:18.092Z,4.70
2019-05-07T23:28:48.363Z,4.70
2019-05-07T23:31:18.417Z,4.80
2019-05-07T23:33:48.776Z,4.70
2019-05-07T23:36:19.665Z,4.70
2019-05-07T23:38:52.078Z,4.60
2019-05-07T23:42:02.128Z,4.60
2019-05-07T23:44:31.870Z,4.60
2019-05-07T23:47:02.894Z,4.60
2019-05-07T23:49:33.091Z,4.60
2019-05-07T23:52:03.990Z,4.50
2019-05-07T23:54:34.527Z,4.50
2019-05-07T23:57:09.523Z,4.50
2019-05-07T23:59:36.841Z,4.40
